This is the latest recevied weather packets stored in our database for station/object KO6HRZ. If no packets are shown the sender has not sent any weather packets the latest 10 day(s).
| Time | Temp. | Humidity | Pressure | Rain* | Wind** | Luminosity | Snow |
|---|---|---|---|---|---|---|---|
| 1777840279 | 20.56° C | 59% | 1013.1 hPa | 0 mm | - | 629 W/m² | - |
| 1777839674 | 21.11° C | 58% | 1012.9 hPa | 0 mm | - | 1025 W/m² | - |
| 1777839074 | 21.11° C | 58% | 1013 hPa | 0 mm | - | 383 W/m² | - |
| 1777838472 | 22.22° C | 56% | 1012.7 hPa | 0 mm | - | 803 W/m² | - |
| 1777837872 | 21.67° C | 58% | 1012.8 hPa | 0 mm | - | 1024 W/m² | - |
| 1777837269 | 21.67° C | 57% | 1012.8 hPa | 0 mm | - | 758 W/m² | - |
| 1777836668 | 20.56° C | 59% | 1013 hPa | 0 mm | - | 961 W/m² | - |
| 1777836066 | 20° C | 59% | 1013.1 hPa | 0 mm | - | 859 W/m² | - |
| 1777835465 | 20.56° C | 60% | 1013.1 hPa | 0 mm | - | 606 W/m² | - |
| 1777834866 | 20° C | 61% | 1012.9 hPa | 0 mm | - | 781 W/m² | - |
| 1777834262 | 18.89° C | 63% | 1013.2 hPa | 0 mm | - | 479 W/m² | - |
| 1777833660 | 18.33° C | 63% | 1013.4 hPa | 0 mm | - | 453 W/m² | - |
| 1777833060 | 18.89° C | 62% | 1013.2 hPa | 0 mm | - | 495 W/m² | - |
| 1777832456 | 18.89° C | 64% | 1013.2 hPa | 0 mm | - | 565 W/m² | - |
| 1777831855 | 17.78° C | 66% | 1013.3 hPa | 0 mm | - | 502 W/m² | - |
| 1777831256 | 17.78° C | 67% | 1013.2 hPa | 0 mm | - | 465 W/m² | - |
| 1777830650 | 17.22° C | 67% | 1013.4 hPa | 0 mm | - | 484 W/m² | - |
| 1777830049 | 17.22° C | 67% | 1013.6 hPa | 0 mm | - | 432 W/m² | - |
| 1777829447 | 17.22° C | 68% | 1013.2 hPa | 0 mm | - | 540 W/m² | - |
| 1777828847 | 16.67° C | 70% | 1013.2 hPa | 0 mm | - | 348 W/m² | - |
| 1777828247 | 16.67° C | 70% | 1013.1 hPa | 0 mm | - | 390 W/m² | - |
| 1777827647 | 16.11° C | 73% | 1013.2 hPa | 0 mm | - | 492 W/m² | - |
| 1777827046 | 15.56° C | 74% | 1012.9 hPa | 0 mm | - | 285 W/m² | - |
| 1777826446 | 15.56° C | 75% | 1012.9 hPa | 0 mm | - | 289 W/m² | - |
| 1777825846 | 15° C | 76% | 1013 hPa | 0 mm | - | 235 W/m² | - |
* Rain latest hour (hover to see other rain measurements)
** Current wind speed in m/s (hover to see current wind gust speed)